createdAt,value
2022-10-26T00:00:45.995Z,11.20
2022-10-26T00:03:12.789Z,11.20
2022-10-26T00:05:39.779Z,11.20
2022-10-26T00:08:06.968Z,11.20
2022-10-26T00:10:37.316Z,11.30
2022-10-26T00:13:04.402Z,11.30
2022-10-26T00:15:31.544Z,11.30
2022-10-26T00:17:58.374Z,11.30
2022-10-26T00:20:25.069Z,11.30
2022-10-26T00:22:51.724Z,11.30
2022-10-26T00:25:18.336Z,11.30
2022-10-26T00:27:44.930Z,11.30
2022-10-26T00:30:11.590Z,11.30
2022-10-26T00:32:38.254Z,11.20
2022-10-26T00:35:15.836Z,11.20
2022-10-26T00:37:54.355Z,11.20
2022-10-26T00:40:21.045Z,11.30
2022-10-26T00:42:47.946Z,11.30
2022-10-26T00:45:22.747Z,11.20
2022-10-26T00:47:52.069Z,11.30
2022-10-26T00:50:21.726Z,11.20
2022-10-26T00:52:49.224Z,11.30
2022-10-26T00:55:21.237Z,11.30
2022-10-26T00:57:49.183Z,11.30
2022-10-26T01:00:15.924Z,11.30
2022-10-26T01:02:43.698Z,11.30
2022-10-26T01:05:11.347Z,11.40
2022-10-26T01:07:38.052Z,11.40
2022-10-26T01:10:05.145Z,11.40
2022-10-26T01:12:31.754Z,11.30
2022-10-26T01:14:58.458Z,11.40
2022-10-26T01:17:34.403Z,11.40
2022-10-26T01:20:16.206Z,11.40
2022-10-26T01:22:58.054Z,11.40
2022-10-26T01:25:33.836Z,11.50
2022-10-26T01:28:02.560Z,11.50
2022-10-26T01:30:36.328Z,11.50
2022-10-26T01:33:12.130Z,11.60
2022-10-26T01:35:47.957Z,11.50
2022-10-26T01:38:29.670Z,11.60
2022-10-26T01:41:03.648Z,11.60
2022-10-26T01:43:31.874Z,11.60
2022-10-26T01:45:58.824Z,11.50
2022-10-26T01:48:26.032Z,11.60
2022-10-26T01:50:53.750Z,11.60
2022-10-26T01:53:20.849Z,11.60
2022-10-26T01:55:51.625Z,11.60
2022-10-26T01:58:27.514Z,11.60
2022-10-26T02:03:47.067Z,11.60
2022-10-26T02:06:27.346Z,11.70
2022-10-26T02:09:00.859Z,11.70
2022-10-26T02:11:27.448Z,11.70
2022-10-26T02:13:56.849Z,11.70
2022-10-26T02:16:37.166Z,11.70
2022-10-26T02:19:24.010Z,11.80
2022-10-26T02:21:53.249Z,11.70
2022-10-26T02:24:20.793Z,11.70
2022-10-26T02:26:48.225Z,11.70
2022-10-26T02:29:16.557Z,11.70
2022-10-26T02:31:43.681Z,11.70
2022-10-26T02:34:11.974Z,11.70
2022-10-26T02:36:41.396Z,11.70
2022-10-26T02:39:09.239Z,11.80
2022-10-26T02:41:36.874Z,11.80
2022-10-26T02:44:12.941Z,11.80
2022-10-26T02:46:39.896Z,11.80
2022-10-26T02:49:06.651Z,11.80
2022-10-26T02:51:33.215Z,11.80
2022-10-26T02:54:23.083Z,11.80
2022-10-26T02:56:54.984Z,11.80
2022-10-26T02:59:23.673Z,11.80
2022-10-26T03:01:51.045Z,11.90
2022-10-26T03:04:17.842Z,11.90
2022-10-26T03:06:54.451Z,11.90
2022-10-26T03:09:23.494Z,11.90
2022-10-26T03:11:52.456Z,11.90
2022-10-26T03:14:19.169Z,11.90
2022-10-26T03:16:45.809Z,11.90
2022-10-26T03:19:12.487Z,11.80
2022-10-26T03:21:39.140Z,11.80
2022-10-26T03:24:05.937Z,11.80
2022-10-26T03:26:32.547Z,11.90
2022-10-26T03:28:59.318Z,11.80
2022-10-26T03:31:25.980Z,11.90
2022-10-26T03:33:52.605Z,11.80
2022-10-26T03:36:19.302Z,11.80
2022-10-26T03:38:45.960Z,11.80
2022-10-26T03:41:12.543Z,11.80
2022-10-26T03:43:39.194Z,11.80
2022-10-26T03:46:05.823Z,11.80
2022-10-26T03:48:32.414Z,11.80
2022-10-26T03:50:59.446Z,11.80
2022-10-26T03:53:26.439Z,11.80
2022-10-26T03:55:53.041Z,11.80
2022-10-26T03:58:19.715Z,11.90
2022-10-26T04:00:47.209Z,11.90
2022-10-26T04:03:14.122Z,11.90
2022-10-26T04:05:40.711Z,12.00
2022-10-26T04:08:08.250Z,12.00
2022-10-26T04:10:34.894Z,12.10
2022-10-26T04:13:01.897Z,12.10
2022-10-26T04:15:28.872Z,12.10
2022-10-26T04:17:59.295Z,12.20
2022-10-26T04:20:26.700Z,12.20
2022-10-26T04:23:03.797Z,12.20
2022-10-26T04:25:33.048Z,12.30
2022-10-26T04:28:00.650Z,12.20
2022-10-26T04:30:27.241Z,12.20
2022-10-26T04:32:53.848Z,12.10
2022-10-26T04:35:20.550Z,12.10
2022-10-26T04:37:47.157Z,12.10
2022-10-26T04:40:14.010Z,12.10
2022-10-26T04:42:44.092Z,12.10
2022-10-26T04:45:11.398Z,12.10
2022-10-26T04:47:38.161Z,12.10
2022-10-26T04:50:05.375Z,12.10
2022-10-26T04:52:32.022Z,12.10
2022-10-26T04:54:58.645Z,12.10
2022-10-26T04:57:25.302Z,12.10
2022-10-26T04:59:51.933Z,12.10
2022-10-26T05:02:18.720Z,12.10
2022-10-26T05:04:45.399Z,12.20
2022-10-26T05:07:12.064Z,12.10
2022-10-26T05:09:38.691Z,12.10
2022-10-26T05:12:05.419Z,12.10
2022-10-26T05:14:32.142Z,12.10
2022-10-26T05:16:58.761Z,12.10
2022-10-26T05:19:25.360Z,12.10
2022-10-26T05:21:53.439Z,12.10
2022-10-26T05:24:20.095Z,12.10
2022-10-26T05:26:46.894Z,12.10
2022-10-26T05:29:13.513Z,12.10
2022-10-26T05:31:40.161Z,12.10
2022-10-26T05:34:06.754Z,12.10
2022-10-26T05:36:33.386Z,12.10
2022-10-26T05:39:00.013Z,12.00
2022-10-26T05:41:27.076Z,12.00
2022-10-26T05:43:53.833Z,12.00
2022-10-26T05:46:20.533Z,12.00
2022-10-26T05:48:47.305Z,12.10
2022-10-26T05:51:14.376Z,12.00
2022-10-26T05:53:41.087Z,12.00
2022-10-26T05:56:16.977Z,12.00
2022-10-26T05:58:43.853Z,12.10
2022-10-26T06:01:16.466Z,12.00
2022-10-26T06:04:07.708Z,12.00
2022-10-26T06:06:38.923Z,12.10
2022-10-26T06:09:05.940Z,12.10
2022-10-26T06:11:32.849Z,12.10
2022-10-26T06:14:01.249Z,12.10
2022-10-26T06:16:37.120Z,12.10
2022-10-26T06:19:12.388Z,12.10
2022-10-26T06:21:45.293Z,12.20
2022-10-26T06:24:21.998Z,12.20
2022-10-26T06:26:54.871Z,12.30
2022-10-26T06:29:33.961Z,12.30
2022-10-26T06:32:01.394Z,12.30
2022-10-26T06:34:33.344Z,12.30
2022-10-26T06:37:00.780Z,12.30
2022-10-26T06:39:31.765Z,12.40
2022-10-26T06:41:58.776Z,12.50
2022-10-26T06:44:26.108Z,12.60
2022-10-26T06:46:52.912Z,12.60
2022-10-26T06:49:27.451Z,12.80
2022-10-26T06:52:02.654Z,13.00
2022-10-26T06:54:36.266Z,13.20
2022-10-26T06:57:03.093Z,13.30
2022-10-26T06:59:33.076Z,13.50
2022-10-26T07:02:02.886Z,13.60
2022-10-26T07:04:32.794Z,13.70
2022-10-26T07:06:59.547Z,13.80
2022-10-26T07:09:26.223Z,13.80
2022-10-26T07:11:53.094Z,13.70
2022-10-26T07:14:19.919Z,13.60
2022-10-26T07:16:46.747Z,13.60
2022-10-26T07:19:13.487Z,13.60
2022-10-26T07:21:40.261Z,13.60
2022-10-26T07:24:07.444Z,13.60
2022-10-26T07:26:34.145Z,13.60
2022-10-26T07:29:01.000Z,13.60
2022-10-26T07:31:27.794Z,13.70
2022-10-26T07:33:54.894Z,13.70
2022-10-26T07:36:22.034Z,13.70
2022-10-26T07:38:51.516Z,13.70
2022-10-26T07:41:18.422Z,13.70
2022-10-26T07:43:50.939Z,13.70
2022-10-26T07:46:18.585Z,13.70
2022-10-26T07:48:45.470Z,13.70
2022-10-26T07:51:12.399Z,13.60
2022-10-26T07:53:39.186Z,13.60
2022-10-26T07:56:06.516Z,13.60
2022-10-26T07:58:33.310Z,13.60
2022-10-26T08:01:05.819Z,13.60
2022-10-26T08:03:32.655Z,13.60
2022-10-26T08:05:59.376Z,13.60
2022-10-26T08:08:26.023Z,13.70
2022-10-26T08:10:52.824Z,13.80
2022-10-26T08:13:19.437Z,13.90
2022-10-26T08:15:46.250Z,14.00
2022-10-26T08:18:12.973Z,14.10
2022-10-26T08:20:39.698Z,14.20
2022-10-26T08:23:06.346Z,14.40
2022-10-26T08:25:33.437Z,14.70
2022-10-26T08:28:03.745Z,15.00
2022-10-26T08:30:31.036Z,15.00
2022-10-26T08:33:04.917Z,15.00
2022-10-26T08:35:32.304Z,15.00
2022-10-26T08:37:59.113Z,15.00
2022-10-26T08:40:27.700Z,15.10
2022-10-26T08:43:02.030Z,15.10
2022-10-26T08:45:33.019Z,15.00
2022-10-26T08:48:05.721Z,15.00
2022-10-26T08:50:34.070Z,15.00
2022-10-26T08:53:04.719Z,15.10
2022-10-26T08:58:16.591Z,15.20
2022-10-26T09:00:44.289Z,15.20
2022-10-26T09:03:15.186Z,15.20
2022-10-26T09:05:46.542Z,15.30
2022-10-26T09:08:22.557Z,15.30
2022-10-26T09:11:07.748Z,15.40
2022-10-26T09:14:09.768Z,15.50
2022-10-26T09:16:36.525Z,15.60
2022-10-26T09:19:03.278Z,15.80
2022-10-26T09:21:40.827Z,16.00
2022-10-26T09:24:10.398Z,16.20
2022-10-26T09:26:39.932Z,16.40
2022-10-26T09:29:11.225Z,16.40
2022-10-26T09:31:43.498Z,16.60
2022-10-26T09:34:36.708Z,16.80
2022-10-26T09:37:12.164Z,17.10
2022-10-26T09:39:43.874Z,17.30
2022-10-26T09:42:14.738Z,18.00
2022-10-26T09:44:50.853Z,19.80
2022-10-26T09:47:26.892Z,21.50
2022-10-26T09:49:56.404Z,22.90
2022-10-26T09:52:23.179Z,23.20
2022-10-26T09:54:49.855Z,23.80
2022-10-26T09:57:18.767Z,24.70
2022-10-26T09:59:47.871Z,26.20
2022-10-26T10:02:33.791Z,27.10
2022-10-26T10:05:00.803Z,28.20
2022-10-26T10:07:27.476Z,28.70
2022-10-26T10:10:17.354Z,29.20
2022-10-26T10:12:44.815Z,28.80
2022-10-26T10:15:18.863Z,29.20
2022-10-26T10:17:52.950Z,29.90
2022-10-26T10:20:21.782Z,30.40
2022-10-26T10:22:55.712Z,30.80
2022-10-26T10:25:25.898Z,30.90
2022-10-26T10:27:53.629Z,30.90
2022-10-26T10:30:22.482Z,31.30
2022-10-26T10:33:03.967Z,31.30
2022-10-26T10:35:30.725Z,31.00
2022-10-26T10:37:57.848Z,30.30
2022-10-26T10:40:26.101Z,29.70
2022-10-26T10:42:54.114Z,29.10
2022-10-26T10:45:25.436Z,27.60
2022-10-26T10:48:10.740Z,26.10
2022-10-26T10:50:37.992Z,24.30
2022-10-26T10:53:14.047Z,23.50
2022-10-26T10:55:45.050Z,23.10
2022-10-26T10:58:14.740Z,22.60
2022-10-26T11:00:43.027Z,22.40
2022-10-26T11:03:28.400Z,22.50
2022-10-26T11:06:01.036Z,23.40
2022-10-26T11:08:32.598Z,24.50
2022-10-26T11:11:17.867Z,24.80
2022-10-26T11:13:50.316Z,24.30
2022-10-26T11:16:20.683Z,23.60
2022-10-26T11:18:59.204Z,23.10
2022-10-26T11:21:29.005Z,23.10
2022-10-26T11:24:11.078Z,22.80
2022-10-26T11:26:43.680Z,22.40
2022-10-26T11:29:39.885Z,22.10
2022-10-26T11:32:15.058Z,22.00
2022-10-26T11:34:46.580Z,21.80
2022-10-26T11:37:21.225Z,21.70
2022-10-26T11:40:00.207Z,21.50
2022-10-26T11:42:27.151Z,22.10
2022-10-26T11:45:04.305Z,23.10
2022-10-26T11:47:43.085Z,23.30
2022-10-26T11:50:18.769Z,23.60
2022-10-26T11:52:54.936Z,23.80
2022-10-26T11:55:22.487Z,23.80
2022-10-26T11:57:50.578Z,23.70
2022-10-26T12:00:18.628Z,23.60
2022-10-26T12:02:51.125Z,23.30
2022-10-26T12:05:18.059Z,23.20
2022-10-26T12:07:47.938Z,22.90
2022-10-26T12:10:23.820Z,22.70
2022-10-26T12:12:55.133Z,22.50
2022-10-26T12:15:35.105Z,22.40
2022-10-26T12:18:20.297Z,22.50
2022-10-26T12:21:02.710Z,22.60
2022-10-26T12:23:40.652Z,22.60
2022-10-26T12:26:23.217Z,22.60
2022-10-26T12:29:09.878Z,22.90
2022-10-26T12:31:36.565Z,23.00
2022-10-26T12:34:22.219Z,23.40
2022-10-26T12:36:55.298Z,23.50
2022-10-26T12:39:29.814Z,23.10
2022-10-26T12:41:59.579Z,22.70
2022-10-26T12:44:48.405Z,22.50
2022-10-26T12:47:30.337Z,22.50
2022-10-26T12:50:00.852Z,22.70
2022-10-26T12:52:33.495Z,22.50
2022-10-26T12:55:13.468Z,22.30
2022-10-26T12:57:59.573Z,22.10
2022-10-26T13:00:27.405Z,22.20
2022-10-26T13:03:18.806Z,22.20
2022-10-26T13:06:04.438Z,22.30
2022-10-26T13:08:41.713Z,22.40
2022-10-26T13:11:20.971Z,22.50
2022-10-26T13:13:55.580Z,22.40
2022-10-26T13:16:24.879Z,22.20
2022-10-26T13:18:51.706Z,22.20
2022-10-26T13:21:19.660Z,22.20
2022-10-26T13:23:55.912Z,22.10
2022-10-26T13:26:24.564Z,22.10
2022-10-26T13:29:00.160Z,22.00
2022-10-26T13:31:31.365Z,22.00
2022-10-26T13:37:11.702Z,22.20
2022-10-26T13:39:40.450Z,22.30
2022-10-26T13:42:08.003Z,22.30
2022-10-26T13:44:53.662Z,22.40
2022-10-26T13:47:29.494Z,22.50
2022-10-26T13:49:59.265Z,22.70
2022-10-26T13:52:32.904Z,22.70
2022-10-26T13:55:01.627Z,23.00
2022-10-26T13:57:36.046Z,23.00
2022-10-26T14:00:08.607Z,23.00
2022-10-26T14:02:41.331Z,23.00
2022-10-26T14:05:10.311Z,23.10
2022-10-26T14:07:50.493Z,23.20
2022-10-26T14:10:39.030Z,23.10
2022-10-26T14:13:09.860Z,23.00
2022-10-26T14:15:36.864Z,22.60
2022-10-26T14:18:04.588Z,22.60
2022-10-26T14:20:32.351Z,22.30
2022-10-26T14:22:59.147Z,22.20
2022-10-26T14:25:41.977Z,22.00
2022-10-26T14:28:22.599Z,22.00
2022-10-26T14:30:49.321Z,22.00
2022-10-26T14:33:20.799Z,21.90
2022-10-26T14:35:48.055Z,21.90
2022-10-26T14:38:23.081Z,21.90
2022-10-26T14:40:52.039Z,21.80
2022-10-26T14:43:21.269Z,21.80
2022-10-26T14:45:49.760Z,21.80
2022-10-26T14:48:20.820Z,21.80
2022-10-26T14:51:06.570Z,21.70
2022-10-26T14:53:35.799Z,21.70
2022-10-26T14:56:03.616Z,21.70
2022-10-26T14:58:31.251Z,21.60
2022-10-26T15:01:17.420Z,21.60
2022-10-26T15:03:44.850Z,21.50
2022-10-26T15:06:29.995Z,21.50
2022-10-26T15:09:00.926Z,21.40
2022-10-26T15:11:28.171Z,21.30
2022-10-26T15:13:55.913Z,21.30
2022-10-26T15:16:23.775Z,21.20
2022-10-26T15:18:52.249Z,21.10
2022-10-26T15:21:28.452Z,21.00
2022-10-26T15:23:56.048Z,20.90
2022-10-26T15:26:23.143Z,20.80
2022-10-26T15:28:49.962Z,20.70
2022-10-26T15:31:16.739Z,20.60
2022-10-26T15:33:52.592Z,20.60
2022-10-26T15:36:20.307Z,20.50
2022-10-26T15:38:48.333Z,20.50
2022-10-26T15:41:18.036Z,20.30
2022-10-26T15:43:47.863Z,20.20
2022-10-26T15:46:15.314Z,20.10
2022-10-26T15:48:42.834Z,20.00
2022-10-26T15:51:13.944Z,19.80
2022-10-26T15:53:40.912Z,19.60
2022-10-26T15:56:14.781Z,19.50
2022-10-26T15:58:41.658Z,19.40
2022-10-26T16:01:12.941Z,19.30
2022-10-26T16:03:40.001Z,19.10
2022-10-26T16:06:08.644Z,19.00
2022-10-26T16:08:35.419Z,18.80
2022-10-26T16:11:02.155Z,18.70
2022-10-26T16:13:30.737Z,18.60
2022-10-26T16:15:57.635Z,18.30
2022-10-26T16:18:24.366Z,18.30
2022-10-26T16:20:51.094Z,18.20
2022-10-26T16:23:17.846Z,18.00
2022-10-26T16:25:46.044Z,17.90
2022-10-26T16:28:14.781Z,17.70
2022-10-26T16:30:42.233Z,17.50
2022-10-26T16:33:09.169Z,17.40
2022-10-26T16:35:36.060Z,17.20
2022-10-26T16:38:02.821Z,17.10
2022-10-26T16:40:29.574Z,16.90
2022-10-26T16:42:56.365Z,16.70
2022-10-26T16:45:23.255Z,16.60
2022-10-26T16:47:50.405Z,16.50
2022-10-26T16:50:20.541Z,16.30
2022-10-26T16:52:47.324Z,16.20
2022-10-26T16:55:14.241Z,16.10
2022-10-26T16:57:40.998Z,15.90
2022-10-26T17:00:08.150Z,15.80
2022-10-26T17:02:35.048Z,15.70
2022-10-26T17:05:04.387Z,15.50
2022-10-26T17:07:33.945Z,15.40
2022-10-26T17:10:00.677Z,15.30
2022-10-26T17:14:54.168Z,15.20
2022-10-26T17:17:20.913Z,15.00
2022-10-26T17:19:47.720Z,15.00
2022-10-26T17:22:14.521Z,14.90
2022-10-26T17:24:41.357Z,14.80
2022-10-26T17:27:08.247Z,14.70
2022-10-26T17:29:34.931Z,14.70
2022-10-26T17:32:01.755Z,14.60
2022-10-26T17:34:28.459Z,14.50
2022-10-26T17:36:55.212Z,14.40
2022-10-26T17:39:22.025Z,14.40
2022-10-26T17:41:48.825Z,14.30
2022-10-26T17:44:15.516Z,14.20
2022-10-26T17:46:42.504Z,14.20
2022-10-26T17:49:09.205Z,14.20
2022-10-26T17:51:36.013Z,14.10
2022-10-26T17:54:02.992Z,14.00
2022-10-26T17:56:31.145Z,14.00
2022-10-26T17:58:59.177Z,13.80
2022-10-26T18:01:26.772Z,13.80
2022-10-26T18:03:53.713Z,13.70
2022-10-26T18:06:21.197Z,13.60
2022-10-26T18:08:47.950Z,13.60
2022-10-26T18:11:23.872Z,13.50
2022-10-26T18:13:53.120Z,13.40
2022-10-26T18:16:22.132Z,13.40
2022-10-26T18:18:50.346Z,13.30
2022-10-26T18:21:19.021Z,13.30
2022-10-26T18:23:46.116Z,13.30
2022-10-26T18:26:17.786Z,13.20
2022-10-26T18:28:44.959Z,13.10
2022-10-26T18:31:14.305Z,13.20
2022-10-26T18:33:41.237Z,13.10
2022-10-26T18:36:09.669Z,13.00
2022-10-26T18:38:36.980Z,12.90
2022-10-26T18:41:03.918Z,12.80
2022-10-26T18:43:30.840Z,12.70
2022-10-26T18:46:11.354Z,12.70
2022-10-26T18:48:38.511Z,12.70
2022-10-26T18:51:09.837Z,12.60
2022-10-26T18:53:37.692Z,12.60
2022-10-26T18:56:05.960Z,12.50
2022-10-26T18:58:33.666Z,12.50
2022-10-26T19:01:06.919Z,12.50
2022-10-26T19:03:33.895Z,12.40
2022-10-26T19:06:09.574Z,12.30
2022-10-26T19:08:36.268Z,12.20
2022-10-26T19:11:06.846Z,12.20
2022-10-26T19:13:33.620Z,12.20
2022-10-26T19:16:07.238Z,12.10
2022-10-26T19:18:39.648Z,12.20
2022-10-26T19:21:07.927Z,12.10
2022-10-26T19:23:35.364Z,12.10
2022-10-26T19:26:02.447Z,12.10
2022-10-26T19:28:29.474Z,12.00
2022-10-26T19:30:56.236Z,12.00
2022-10-26T19:33:23.821Z,11.90
2022-10-26T19:35:51.901Z,11.90
2022-10-26T19:38:19.188Z,11.90
2022-10-26T19:40:45.985Z,11.90
2022-10-26T19:43:14.444Z,11.90
2022-10-26T19:45:41.348Z,11.80
2022-10-26T19:48:08.516Z,11.70
2022-10-26T19:50:35.295Z,11.70
2022-10-26T19:53:03.495Z,11.60
2022-10-26T19:55:30.289Z,11.60
2022-10-26T19:57:57.102Z,11.60
2022-10-26T20:00:23.886Z,11.50
2022-10-26T20:02:50.902Z,11.50
2022-10-26T20:05:38.434Z,11.50
2022-10-26T20:08:07.575Z,11.50
2022-10-26T20:10:34.874Z,11.40
2022-10-26T20:13:01.671Z,11.40
2022-10-26T20:15:28.423Z,11.40
2022-10-26T20:17:55.162Z,11.40
2022-10-26T20:20:21.880Z,11.40
2022-10-26T20:22:48.932Z,11.40
2022-10-26T20:25:16.025Z,11.40
2022-10-26T20:27:42.820Z,11.30
2022-10-26T20:30:09.948Z,11.20
2022-10-26T20:32:36.747Z,11.20
2022-10-26T20:35:03.550Z,11.20
2022-10-26T20:37:31.616Z,11.10
2022-10-26T20:39:58.672Z,11.10
2022-10-26T20:42:26.550Z,11.10
2022-10-26T20:45:12.241Z,11.10
2022-10-26T20:47:39.184Z,11.00
2022-10-26T20:50:06.201Z,11.00
2022-10-26T20:52:53.050Z,11.00
2022-10-26T20:55:28.128Z,10.90
2022-10-26T20:58:11.949Z,10.90
2022-10-26T21:00:42.861Z,10.80
2022-10-26T21:03:09.732Z,10.80
2022-10-26T21:05:36.354Z,10.80
2022-10-26T21:08:03.026Z,10.80
2022-10-26T21:10:29.941Z,10.70
2022-10-26T21:12:56.609Z,10.80
2022-10-26T21:15:23.267Z,10.70
2022-10-26T21:17:50.352Z,10.70
2022-10-26T21:20:17.459Z,10.80
2022-10-26T21:22:46.898Z,10.80
2022-10-26T21:25:13.696Z,10.70
2022-10-26T21:27:40.345Z,10.60
2022-10-26T21:30:07.278Z,10.60
2022-10-26T21:32:34.036Z,10.60
2022-10-26T21:35:00.679Z,10.60
2022-10-26T21:37:27.687Z,10.60
2022-10-26T21:39:54.380Z,10.50
2022-10-26T21:42:21.041Z,10.50
2022-10-26T21:44:47.763Z,10.50
2022-10-26T21:47:14.460Z,10.50
2022-10-26T21:52:12.665Z,10.40
2022-10-26T21:54:39.295Z,10.40
2022-10-26T21:57:05.997Z,10.40
2022-10-26T21:59:32.668Z,10.40
2022-10-26T22:01:59.364Z,10.30
2022-10-26T22:04:26.089Z,10.40
2022-10-26T22:06:52.727Z,10.30
2022-10-26T22:09:19.362Z,10.30
2022-10-26T22:11:46.008Z,10.30
2022-10-26T22:14:13.144Z,10.30
2022-10-26T22:16:39.802Z,10.30
2022-10-26T22:19:06.985Z,10.30
2022-10-26T22:21:35.182Z,10.20
2022-10-26T22:24:02.215Z,10.20
2022-10-26T22:26:29.116Z,10.10
2022-10-26T22:28:56.482Z,10.20
2022-10-26T22:31:24.872Z,10.20
2022-10-26T22:33:55.099Z,10.20
2022-10-26T22:36:22.363Z,10.20
2022-10-26T22:38:49.791Z,10.10
2022-10-26T22:41:16.910Z,10.10
2022-10-26T22:43:43.652Z,10.00
2022-10-26T22:46:15.238Z,10.00
2022-10-26T22:48:45.312Z,9.90
2022-10-26T22:51:13.352Z,9.90
2022-10-26T22:53:40.274Z,9.80
2022-10-26T22:56:08.014Z,9.80
2022-10-26T22:58:34.946Z,9.80
2022-10-26T23:01:05.715Z,9.80
2022-10-26T23:03:32.715Z,9.80
2022-10-26T23:05:59.480Z,9.80
2022-10-26T23:08:26.433Z,9.70
2022-10-26T23:10:53.427Z,9.70
2022-10-26T23:13:20.073Z,9.70
2022-10-26T23:15:46.737Z,9.70
2022-10-26T23:18:13.434Z,9.60
2022-10-26T23:20:40.334Z,9.60
2022-10-26T23:23:11.900Z,9.60
2022-10-26T23:25:38.559Z,9.60
2022-10-26T23:28:05.195Z,9.50
2022-10-26T23:30:31.825Z,9.50
2022-10-26T23:32:58.469Z,9.50
2022-10-26T23:35:25.148Z,9.50
2022-10-26T23:37:51.832Z,9.40
2022-10-26T23:40:18.616Z,9.40
2022-10-26T23:42:45.253Z,9.40
2022-10-26T23:45:11.942Z,9.40
2022-10-26T23:47:39.713Z,9.40
2022-10-26T23:50:06.645Z,9.30
2022-10-26T23:52:33.292Z,9.30
2022-10-26T23:54:59.897Z,9.30
2022-10-26T23:57:26.489Z,9.30
2022-10-26T23:59:53.279Z,9.20
